createdAt,value
2022-10-01T00:02:34.636Z,22.18
2022-10-01T00:05:14.120Z,22.13
2022-10-01T00:07:51.080Z,21.93
2022-10-01T00:10:22.917Z,22.00
2022-10-01T00:12:57.261Z,21.86
2022-10-01T00:15:31.749Z,21.89
2022-10-01T00:17:58.930Z,21.95
2022-10-01T00:20:28.922Z,21.82
2022-10-01T00:22:59.147Z,21.88
2022-10-01T00:25:28.559Z,21.90
2022-10-01T00:27:58.175Z,21.91
2022-10-01T00:30:31.144Z,21.86
2022-10-01T00:32:58.430Z,21.93
2022-10-01T00:35:31.194Z,21.88
2022-10-01T00:38:01.464Z,21.89
2022-10-01T00:40:36.141Z,21.88
2022-10-01T00:43:23.565Z,21.82
2022-10-01T00:46:05.046Z,21.75
2022-10-01T00:48:50.843Z,21.72
2022-10-01T00:51:21.370Z,21.72
2022-10-01T00:53:51.124Z,21.70
2022-10-01T00:56:21.037Z,21.64
2022-10-01T00:59:03.324Z,21.68
2022-10-01T01:01:31.464Z,21.67
2022-10-01T01:03:59.490Z,21.69
2022-10-01T01:06:26.724Z,21.69
2022-10-01T01:08:55.452Z,21.67
2022-10-01T01:11:39.370Z,21.63
2022-10-01T01:14:24.785Z,21.55
2022-10-01T01:16:59.027Z,21.60
2022-10-01T01:19:59.375Z,21.57
2022-10-01T01:22:31.460Z,21.56
2022-10-01T01:25:07.969Z,21.57
2022-10-01T01:27:51.581Z,21.51
2022-10-01T01:30:19.438Z,21.51
2022-10-01T01:32:55.932Z,21.41
2022-10-01T01:35:32.616Z,21.25
2022-10-01T01:38:05.537Z,21.15
2022-10-01T01:40:36.958Z,21.25
2022-10-01T01:43:08.707Z,21.25
2022-10-01T01:45:40.215Z,21.20
2022-10-01T01:48:10.205Z,21.11
2022-10-01T01:51:19.552Z,21.08
2022-10-01T01:53:47.004Z,21.04
2022-10-01T01:56:16.699Z,21.06
2022-10-01T01:58:46.239Z,21.05
2022-10-01T02:01:48.107Z,21.15
2022-10-01T02:04:32.341Z,21.21
2022-10-01T02:07:19.322Z,21.17
2022-10-01T02:10:27.845Z,21.05
2022-10-01T02:13:30.975Z,21.05
2022-10-01T02:16:15.208Z,20.80
2022-10-01T02:19:05.683Z,20.78
2022-10-01T02:21:41.060Z,20.59
2022-10-01T02:24:28.864Z,20.47
2022-10-01T02:27:09.749Z,20.59
2022-10-01T02:29:44.505Z,20.70
2022-10-01T02:32:26.198Z,20.63
2022-10-01T02:35:01.750Z,20.75
2022-10-01T02:37:39.822Z,20.78
2022-10-01T02:40:18.880Z,20.78
2022-10-01T02:43:11.697Z,20.77
2022-10-01T02:45:43.465Z,20.80
2022-10-01T02:48:17.915Z,20.84
2022-10-01T02:50:55.598Z,20.91
2022-10-01T02:53:40.536Z,20.82
2022-10-01T02:56:09.322Z,20.93
2022-10-01T02:58:39.540Z,20.95
2022-10-01T03:01:14.106Z,20.88
2022-10-01T03:03:42.153Z,20.89
2022-10-01T03:06:09.304Z,20.79
2022-10-01T03:08:36.809Z,20.82
2022-10-01T03:11:09.522Z,20.78
2022-10-01T03:13:36.995Z,20.76
2022-10-01T03:16:04.334Z,20.69
2022-10-01T03:18:34.660Z,20.72
2022-10-01T03:21:01.858Z,20.62
2022-10-01T03:23:31.552Z,20.66
2022-10-01T03:26:12.301Z,20.64
2022-10-01T03:28:47.153Z,20.72
2022-10-01T03:31:17.433Z,20.71
2022-10-01T03:33:47.090Z,20.72
2022-10-01T03:36:20.087Z,20.74
2022-10-01T03:38:49.539Z,20.75
2022-10-01T03:41:21.183Z,20.73
2022-10-01T03:43:48.603Z,20.71
2022-10-01T03:46:20.694Z,20.68
2022-10-01T03:48:50.875Z,20.67
2022-10-01T03:51:33.498Z,20.68
2022-10-01T03:54:11.841Z,20.67
2022-10-01T03:56:44.924Z,20.67
2022-10-01T04:01:59.841Z,20.62
2022-10-01T04:04:29.155Z,20.58
2022-10-01T04:06:56.328Z,20.43
2022-10-01T04:09:23.882Z,20.37
2022-10-01T04:11:53.740Z,20.37
2022-10-01T04:14:20.866Z,20.46
2022-10-01T04:16:49.399Z,20.44
2022-10-01T04:19:16.518Z,20.41
2022-10-01T04:21:43.721Z,20.34
2022-10-01T04:24:10.941Z,20.28
2022-10-01T04:26:38.170Z,20.34
2022-10-01T04:29:06.216Z,20.26
2022-10-01T04:31:35.754Z,20.26
2022-10-01T04:34:04.156Z,20.26
2022-10-01T04:36:31.439Z,20.31
2022-10-01T04:39:02.021Z,20.25
2022-10-01T04:41:31.663Z,20.21
2022-10-01T04:44:00.329Z,20.25
2022-10-01T04:46:29.778Z,20.09
2022-10-01T04:48:57.049Z,20.06
2022-10-01T04:51:24.814Z,20.03
2022-10-01T04:53:51.968Z,19.93
2022-10-01T04:56:19.127Z,20.12
2022-10-01T04:58:48.017Z,20.13
2022-10-01T05:01:15.512Z,20.12
2022-10-01T05:03:42.733Z,20.11
2022-10-01T05:06:09.970Z,20.10
2022-10-01T05:08:37.888Z,19.99
2022-10-01T05:11:05.193Z,20.07
2022-10-01T05:13:32.332Z,20.11
2022-10-01T05:16:01.943Z,20.08
2022-10-01T05:18:29.256Z,20.03
2022-10-01T05:20:56.511Z,20.10
2022-10-01T05:23:23.963Z,20.10
2022-10-01T05:25:52.543Z,20.09
2022-10-01T05:28:22.483Z,20.12
2022-10-01T05:30:51.330Z,20.00
2022-10-01T05:33:18.687Z,19.84
2022-10-01T05:35:45.919Z,20.05
2022-10-01T05:38:13.187Z,20.06
2022-10-01T05:40:45.050Z,20.11
2022-10-01T05:43:13.207Z,19.92
2022-10-01T05:45:42.099Z,19.90
2022-10-01T05:48:09.914Z,19.73
2022-10-01T05:50:44.759Z,19.88
2022-10-01T05:53:16.414Z,19.96
2022-10-01T05:55:49.492Z,20.09
2022-10-01T05:58:17.981Z,20.10
2022-10-01T06:00:47.911Z,19.81
2022-10-01T06:03:15.459Z,19.64
2022-10-01T06:05:45.157Z,19.56
2022-10-01T06:08:12.845Z,19.66
2022-10-01T06:10:40.332Z,19.42
2022-10-01T06:13:08.237Z,19.72
2022-10-01T06:15:38.158Z,19.64
2022-10-01T06:18:09.545Z,19.38
2022-10-01T06:20:40.804Z,19.47
2022-10-01T06:23:16.137Z,19.38
2022-10-01T06:25:44.451Z,19.61
2022-10-01T06:28:17.384Z,19.71
2022-10-01T06:30:45.797Z,19.64
2022-10-01T06:33:15.500Z,19.60
2022-10-01T06:35:45.679Z,19.66
2022-10-01T06:38:13.658Z,19.51
2022-10-01T06:40:41.935Z,19.56
2022-10-01T06:43:09.863Z,19.74
2022-10-01T06:45:42.822Z,19.75
2022-10-01T06:48:14.976Z,19.78
2022-10-01T06:50:46.721Z,19.62
2022-10-01T06:53:16.316Z,19.87
2022-10-01T06:55:44.835Z,19.93
2022-10-01T06:58:17.726Z,19.93
2022-10-01T07:00:46.016Z,20.08
2022-10-01T07:03:25.284Z,20.03
2022-10-01T07:05:53.961Z,20.12
2022-10-01T07:08:23.673Z,20.12
2022-10-01T07:10:51.284Z,20.10
2022-10-01T07:13:20.901Z,20.11
2022-10-01T07:15:51.519Z,20.07
2022-10-01T07:18:18.976Z,19.98
2022-10-01T07:20:46.536Z,19.79
2022-10-01T07:23:17.132Z,19.97
2022-10-01T07:25:45.340Z,19.98
2022-10-01T07:28:19.112Z,20.02
2022-10-01T07:31:00.057Z,20.13
2022-10-01T07:33:28.237Z,20.19
2022-10-01T07:35:55.912Z,20.31
2022-10-01T07:38:24.901Z,20.21
2022-10-01T07:40:56.503Z,20.23
2022-10-01T07:43:23.760Z,20.20
2022-10-01T07:46:03.503Z,20.11
2022-10-01T07:48:31.339Z,20.13
2022-10-01T07:50:58.993Z,20.51
2022-10-01T07:53:32.222Z,20.57
2022-10-01T07:56:05.365Z,20.58
2022-10-01T07:58:39.070Z,20.56
2022-10-01T08:01:09.251Z,20.97
2022-10-01T08:03:36.778Z,21.02
2022-10-01T08:06:07.365Z,21.34
2022-10-01T08:08:37.712Z,21.59
2022-10-01T08:11:09.684Z,22.07
2022-10-01T08:13:38.282Z,22.38
2022-10-01T08:16:13.523Z,22.43
2022-10-01T08:18:47.744Z,22.63
2022-10-01T08:21:15.305Z,22.85
2022-10-01T08:23:43.392Z,22.98
2022-10-01T08:26:13.787Z,23.25
2022-10-01T08:28:41.749Z,23.53
2022-10-01T08:31:10.178Z,23.39
2022-10-01T08:33:40.947Z,23.26
2022-10-01T08:36:10.778Z,23.61
2022-10-01T08:38:41.126Z,23.71
2022-10-01T08:41:41.144Z,23.67
2022-10-01T08:44:19.343Z,23.80
2022-10-01T08:46:48.852Z,24.31
2022-10-01T08:49:23.545Z,24.16
2022-10-01T08:52:30.001Z,24.38
2022-10-01T08:55:03.433Z,24.26
2022-10-01T08:57:47.263Z,24.86
2022-10-01T09:00:21.331Z,25.16
2022-10-01T09:02:50.800Z,25.08
2022-10-01T09:06:05.664Z,25.35
2022-10-01T09:08:48.573Z,25.91
2022-10-01T09:11:53.625Z,25.79
2022-10-01T09:14:42.849Z,26.34
2022-10-01T09:17:36.343Z,26.74
2022-10-01T09:20:24.012Z,26.80
2022-10-01T09:23:18.968Z,26.89
2022-10-01T09:25:51.289Z,27.21
2022-10-01T09:28:35.872Z,27.35
2022-10-01T09:31:40.578Z,27.13
2022-10-01T09:34:20.252Z,27.09
2022-10-01T09:37:19.313Z,27.15
2022-10-01T09:40:31.160Z,27.13
2022-10-01T09:42:58.467Z,27.06
2022-10-01T09:45:26.200Z,27.07
2022-10-01T09:47:57.918Z,27.45
2022-10-01T09:50:39.243Z,27.71
2022-10-01T09:53:24.488Z,27.94
2022-10-01T09:56:04.900Z,27.96
2022-10-01T09:58:40.274Z,28.14
2022-10-01T10:01:21.457Z,28.30
2022-10-01T10:03:57.578Z,28.02
2022-10-01T10:06:28.887Z,28.46
2022-10-01T10:08:58.688Z,28.78
2022-10-01T10:11:29.217Z,28.84
2022-10-01T10:14:00.664Z,29.32
2022-10-01T10:16:32.877Z,29.33
2022-10-01T10:19:28.594Z,29.70
2022-10-01T10:22:00.925Z,30.12
2022-10-01T10:24:38.434Z,30.16
2022-10-01T10:27:22.012Z,29.99
2022-10-01T10:29:49.579Z,29.44
2022-10-01T10:32:27.132Z,29.13
2022-10-01T10:35:02.839Z,28.77
2022-10-01T10:37:36.400Z,29.16
2022-10-01T10:40:08.434Z,28.89
2022-10-01T10:42:39.010Z,28.48
2022-10-01T10:45:17.841Z,28.60
2022-10-01T10:47:49.506Z,28.35
2022-10-01T10:50:37.102Z,28.38
2022-10-01T10:53:26.422Z,28.74
2022-10-01T10:56:02.274Z,28.68
2022-10-01T10:58:38.364Z,29.11
2022-10-01T11:01:12.244Z,28.50
2022-10-01T11:03:46.795Z,28.75
2022-10-01T11:06:16.364Z,28.73
2022-10-01T11:08:44.633Z,28.77
2022-10-01T11:11:28.218Z,28.96
2022-10-01T11:14:05.141Z,29.50
2022-10-01T11:16:53.854Z,29.00
2022-10-01T11:20:12.360Z,29.62
2022-10-01T11:23:10.581Z,29.35
2022-10-01T11:26:14.211Z,29.20
2022-10-01T11:29:19.453Z,29.78
2022-10-01T11:32:03.136Z,29.45
2022-10-01T11:34:59.045Z,29.90
2022-10-01T11:37:39.277Z,29.42
2022-10-01T11:40:35.540Z,29.50
2022-10-01T11:43:44.798Z,30.08
2022-10-01T11:46:19.586Z,29.97
2022-10-01T11:49:03.945Z,29.94
2022-10-01T11:52:00.443Z,29.89
2022-10-01T11:58:19.986Z,30.27
2022-10-01T12:01:11.337Z,30.22
2022-10-01T12:04:33.589Z,29.92
2022-10-01T12:07:27.770Z,29.39
2022-10-01T12:10:17.896Z,28.70
2022-10-01T12:13:12.383Z,29.25
2022-10-01T12:15:50.022Z,29.94
2022-10-01T12:22:07.089Z,29.50
2022-10-01T12:25:04.435Z,30.16
2022-10-01T12:28:14.916Z,29.76
2022-10-01T12:30:58.762Z,29.85
2022-10-01T12:33:47.927Z,28.87
2022-10-01T12:37:09.458Z,29.35
2022-10-01T12:39:58.235Z,29.43
2022-10-01T12:42:35.792Z,29.68
2022-10-01T12:45:31.911Z,29.44
2022-10-01T12:48:15.774Z,29.72
2022-10-01T12:51:33.106Z,29.81
2022-10-01T12:54:32.369Z,30.19
2022-10-01T12:57:12.546Z,30.52
2022-10-01T13:00:20.326Z,30.79
2022-10-01T13:03:08.810Z,30.26
2022-10-01T13:06:39.597Z,30.33
2022-10-01T13:09:32.497Z,30.75
2022-10-01T13:12:37.357Z,30.92
2022-10-01T13:15:21.312Z,31.60
2022-10-01T13:18:16.076Z,32.03
2022-10-01T13:21:01.477Z,31.85
2022-10-01T13:23:47.440Z,32.28
2022-10-01T13:26:28.749Z,31.74
2022-10-01T13:29:19.512Z,32.26
2022-10-01T13:32:26.275Z,32.03
2022-10-01T13:34:57.066Z,32.13
2022-10-01T13:37:32.444Z,32.35
2022-10-01T13:40:04.279Z,32.61
2022-10-01T13:42:42.727Z,31.79
2022-10-01T13:45:40.529Z,32.18
2022-10-01T13:48:12.182Z,32.32
2022-10-01T13:50:40.818Z,31.61
2022-10-01T13:53:17.318Z,31.85
2022-10-01T13:55:49.663Z,32.39
2022-10-01T13:58:40.153Z,32.30
2022-10-01T14:01:21.303Z,31.53
2022-10-01T14:03:59.861Z,31.78
2022-10-01T14:06:39.828Z,31.47
2022-10-01T14:09:13.107Z,31.40
2022-10-01T14:12:04.411Z,31.40
2022-10-01T14:14:56.382Z,31.20
2022-10-01T14:17:28.416Z,31.13
2022-10-01T14:19:57.028Z,31.02
2022-10-01T14:22:47.276Z,30.59
2022-10-01T14:25:26.832Z,30.68
2022-10-01T14:28:23.332Z,30.44
2022-10-01T14:31:02.693Z,30.19
2022-10-01T14:33:43.063Z,29.48
2022-10-01T14:36:35.554Z,29.61
2022-10-01T14:39:12.688Z,29.97
2022-10-01T14:41:39.957Z,29.57
2022-10-01T14:44:31.837Z,29.74
2022-10-01T14:47:00.476Z,29.69
2022-10-01T14:49:32.943Z,29.84
2022-10-01T14:52:07.301Z,29.63
2022-10-01T14:55:02.940Z,29.68
2022-10-01T14:57:52.476Z,29.41
2022-10-01T15:00:26.866Z,29.31
2022-10-01T15:03:15.507Z,29.50
2022-10-01T15:05:44.799Z,28.91
2022-10-01T15:08:18.001Z,28.81
2022-10-01T15:11:07.869Z,28.58
2022-10-01T15:13:43.386Z,29.08
2022-10-01T15:16:22.812Z,29.04
2022-10-01T15:18:58.542Z,28.41
2022-10-01T15:21:49.220Z,28.01
2022-10-01T15:24:34.944Z,28.47
2022-10-01T15:27:14.948Z,28.05
2022-10-01T15:29:43.870Z,27.93
2022-10-01T15:32:17.270Z,28.33
2022-10-01T15:34:48.114Z,28.34
2022-10-01T15:37:27.786Z,28.30
2022-10-01T15:39:56.780Z,27.95
2022-10-01T15:42:35.477Z,27.85
2022-10-01T15:45:09.340Z,27.80
2022-10-01T15:48:00.056Z,27.43
2022-10-01T15:50:37.194Z,27.69
2022-10-01T15:53:21.038Z,27.66
2022-10-01T15:55:53.150Z,27.39
2022-10-01T15:58:39.480Z,27.30
2022-10-01T16:01:22.359Z,27.64
2022-10-01T16:03:57.644Z,27.58
2022-10-01T16:06:34.674Z,27.28
2022-10-01T16:09:07.715Z,27.23
2022-10-01T16:12:00.327Z,27.50
2022-10-01T16:14:44.283Z,27.40
2022-10-01T16:17:19.784Z,27.27
2022-10-01T16:19:56.777Z,27.07
2022-10-01T16:22:35.976Z,27.19
2022-10-01T16:25:29.590Z,27.24
2022-10-01T16:28:04.527Z,26.99
2022-10-01T16:30:34.254Z,27.06
2022-10-01T16:33:04.836Z,27.11
2022-10-01T16:35:36.065Z,27.07
2022-10-01T16:38:08.599Z,26.98
2022-10-01T16:40:45.412Z,26.84
2022-10-01T16:43:19.103Z,26.75
2022-10-01T16:45:46.661Z,26.81
2022-10-01T16:48:17.260Z,26.52
2022-10-01T16:50:46.864Z,26.66
2022-10-01T16:53:18.693Z,26.39
2022-10-01T16:55:47.206Z,26.26
2022-10-01T16:58:14.855Z,26.50
2022-10-01T17:00:42.202Z,26.42
2022-10-01T17:03:17.296Z,26.23
2022-10-01T17:05:46.856Z,26.35
2022-10-01T17:08:15.500Z,26.25
2022-10-01T17:10:45.869Z,26.20
2022-10-01T17:13:14.207Z,25.72
2022-10-01T17:15:43.776Z,25.97
2022-10-01T17:18:11.336Z,26.06
2022-10-01T17:20:38.777Z,25.68
2022-10-01T17:23:06.658Z,25.99
2022-10-01T17:25:36.050Z,25.84
2022-10-01T17:28:06.118Z,25.61
2022-10-01T17:30:34.032Z,25.43
2022-10-01T17:33:02.132Z,25.62
2022-10-01T17:35:30.326Z,25.80
2022-10-01T17:37:58.624Z,25.89
2022-10-01T17:40:28.528Z,25.60
2022-10-01T17:42:55.849Z,25.65
2022-10-01T17:45:24.431Z,25.62
2022-10-01T17:47:51.666Z,25.60
2022-10-01T17:50:19.144Z,25.34
2022-10-01T17:52:49.827Z,25.54
2022-10-01T17:55:22.314Z,25.22
2022-10-01T17:57:50.538Z,25.34
2022-10-01T18:00:18.397Z,25.12
2022-10-01T18:02:48.332Z,25.18
2022-10-01T18:05:17.739Z,25.32
2022-10-01T18:07:52.643Z,25.00
2022-10-01T18:10:20.113Z,24.74
2022-10-01T18:12:50.211Z,24.76
2022-10-01T18:15:20.584Z,24.50
2022-10-01T18:18:48.568Z,24.93
2022-10-01T18:20:45.061Z,24.52
2022-10-01T18:23:13.498Z,24.67
2022-10-01T18:25:41.009Z,24.87
2022-10-01T18:28:08.564Z,24.80
2022-10-01T18:30:36.674Z,24.55
2022-10-01T18:33:07.209Z,24.94
2022-10-01T18:35:35.880Z,25.06
2022-10-01T18:38:26.918Z,25.07
2022-10-01T18:41:04.563Z,24.86
2022-10-01T18:43:36.933Z,24.83
2022-10-01T18:46:49.015Z,24.55
2022-10-01T18:49:53.974Z,24.51
2022-10-01T18:52:55.776Z,25.03
2022-10-01T18:55:40.784Z,24.64
2022-10-01T18:58:15.511Z,24.83
2022-10-01T19:00:56.544Z,25.12
2022-10-01T19:03:55.780Z,25.08
2022-10-01T19:06:44.830Z,25.16
2022-10-01T19:09:41.021Z,25.04
2022-10-01T19:12:37.195Z,25.09
2022-10-01T19:15:26.371Z,25.10
2022-10-01T19:18:12.366Z,24.96
2022-10-01T19:20:50.569Z,24.94
2022-10-01T19:23:40.658Z,24.92
2022-10-01T19:26:19.133Z,25.15
2022-10-01T19:29:17.319Z,25.21
2022-10-01T19:31:58.017Z,24.86
2022-10-01T19:34:51.082Z,25.16
2022-10-01T19:37:41.767Z,25.28
2022-10-01T19:40:23.904Z,25.31
2022-10-01T19:43:23.033Z,25.24
2022-10-01T19:46:05.470Z,25.05
2022-10-01T19:48:42.753Z,25.05
2022-10-01T19:51:23.469Z,25.12
2022-10-01T19:54:00.409Z,25.13
2022-10-01T19:56:31.361Z,25.22
2022-10-01T19:59:01.850Z,25.03
2022-10-01T20:01:39.562Z,24.98
2022-10-01T20:04:18.382Z,25.02
2022-10-01T20:06:47.859Z,24.93
2022-10-01T20:09:27.417Z,25.24
2022-10-01T20:12:21.666Z,25.28
2022-10-01T20:15:32.602Z,25.18
2022-10-01T20:18:28.815Z,25.29
2022-10-01T20:21:02.249Z,25.45
2022-10-01T20:23:35.509Z,25.44
2022-10-01T20:26:23.706Z,25.48
2022-10-01T20:29:06.215Z,25.54
2022-10-01T20:31:42.792Z,25.58
2022-10-01T20:34:52.531Z,25.61
2022-10-01T20:37:35.285Z,25.55
2022-10-01T20:40:13.401Z,25.55
2022-10-01T20:42:47.089Z,25.55
2022-10-01T20:45:28.012Z,25.58
2022-10-01T20:48:04.640Z,25.60
2022-10-01T20:50:41.558Z,25.61
2022-10-01T20:53:31.455Z,25.57
2022-10-01T20:56:34.967Z,25.50
2022-10-01T20:59:25.286Z,25.40
2022-10-01T21:02:02.614Z,25.43
2022-10-01T21:04:38.518Z,25.31
2022-10-01T21:07:28.740Z,25.30
2022-10-01T21:10:03.647Z,25.28
2022-10-01T21:12:49.998Z,25.29
2022-10-01T21:15:19.258Z,25.27
2022-10-01T21:18:38.610Z,25.23
2022-10-01T21:21:40.864Z,25.18
2022-10-01T21:24:26.614Z,25.17
2022-10-01T21:27:24.734Z,25.08
2022-10-01T21:30:19.054Z,25.11
2022-10-01T21:33:02.025Z,25.13
2022-10-01T21:35:46.171Z,25.12
2022-10-01T21:38:28.597Z,25.08
2022-10-01T21:41:33.651Z,25.09
2022-10-01T21:44:29.481Z,25.05
2022-10-01T21:47:13.224Z,25.04
2022-10-01T21:49:59.306Z,25.02
2022-10-01T21:52:51.145Z,24.95
2022-10-01T21:55:33.353Z,24.99
2022-10-01T21:58:19.745Z,24.98
2022-10-01T22:01:08.590Z,24.94
2022-10-01T22:03:46.610Z,24.92
2022-10-01T22:06:25.794Z,24.93
2022-10-01T22:09:08.213Z,24.91
2022-10-01T22:11:46.499Z,24.88
2022-10-01T22:14:18.069Z,24.88
2022-10-01T22:16:57.698Z,24.89
2022-10-01T22:19:53.296Z,24.84
2022-10-01T22:22:26.049Z,24.84
2022-10-01T22:24:54.659Z,24.82
2022-10-01T22:27:44.661Z,24.79
2022-10-01T22:30:21.309Z,24.75
2022-10-01T22:33:01.646Z,24.78
2022-10-01T22:35:34.436Z,24.80
2022-10-01T22:38:15.336Z,24.78
2022-10-01T22:40:47.435Z,24.74
2022-10-01T22:43:14.889Z,24.78
2022-10-01T22:46:13.726Z,24.76
2022-10-01T22:48:48.571Z,24.73
2022-10-01T22:51:50.341Z,24.67
2022-10-01T22:55:10.834Z,24.70
2022-10-01T22:58:01.054Z,24.66
2022-10-01T23:00:29.036Z,24.69
2022-10-01T23:03:22.272Z,24.57
2022-10-01T23:06:07.672Z,24.57
2022-10-01T23:08:46.728Z,24.55
2022-10-01T23:11:44.648Z,24.49
2022-10-01T23:14:46.832Z,24.44
2022-10-01T23:17:20.818Z,24.37
2022-10-01T23:20:07.073Z,24.36
2022-10-01T23:22:51.766Z,24.30
2022-10-01T23:25:40.585Z,24.30
2022-10-01T23:28:28.657Z,24.24
2022-10-01T23:31:04.957Z,24.28
2022-10-01T23:33:49.832Z,24.25
2022-10-01T23:36:26.705Z,24.24
2022-10-01T23:39:30.369Z,24.21
2022-10-01T23:42:07.712Z,24.11
2022-10-01T23:45:14.801Z,24.09
2022-10-01T23:47:53.574Z,24.05
2022-10-01T23:50:29.411Z,24.00
2022-10-01T23:53:13.478Z,24.00
2022-10-01T23:56:31.470Z,24.00
2022-10-01T23:59:10.547Z,23.97
